<?xml version="1.0" encoding="UTF-8" standalone="no" ?>
<gpx xmlns="http://www.topografix.com/GPX/1/1" xmlns:xsi="http://www.w3.org/2001/XMLSchema-instance" xsi:schemaLocation="http://www.topografix.com/GPX/1/1 http://www.topografix.com/GPX/1/1/gpx.xsd" version="1.1" creator="VisuGPX - https://www.visugpx.com">
  <metadata>
    <name>Mornant GR N°170 Noir - Grand Tour de la Copamo</name>
    <desc><![CDATA[

]]></desc>
  </metadata>
  <trk>
    <name><![CDATA[Mornant GR N°170 Noir - Grand Tour de la Copamo]]></name>
    <trkseg>
      <trkpt lat="45.62057" lon="4.67307">
        <ele>356.79</ele>
        <time>2018-01-18T16:26:31Z</time>
      </trkpt>
      <trkpt lat="45.62032" lon="4.67275">
        <ele>374.57</ele>
        <time>2018-01-18T16:26:43Z</time>
      </trkpt>
      <trkpt lat="45.61946" lon="4.67436">
        <ele>374.09</ele>
        <time>2018-01-18T16:27:19Z</time>
      </trkpt>
      <trkpt lat="45.6189" lon="4.67373">
        <ele>371.69</ele>
        <time>2018-01-18T16:33:29Z</time>
      </trkpt>
      <trkpt lat="45.6188" lon="4.6732">
        <ele>369.76</ele>
        <time>2018-01-18T16:33:43Z</time>
      </trkpt>
      <trkpt lat="45.61845" lon="4.67327">
        <ele>372.65</ele>
        <time>2018-01-18T16:39:22Z</time>
      </trkpt>
      <trkpt lat="45.61596" lon="4.67572">
        <ele>371.21</ele>
        <time>2017-11-19T07:36:39Z</time>
      </trkpt>
      <trkpt lat="45.61424" lon="4.67729">
        <ele>377.94</ele>
        <time>2017-11-19T07:37:34Z</time>
      </trkpt>
      <trkpt lat="45.61291" lon="4.67955">
        <ele>378.9</ele>
        <time>2017-11-19T07:38:24Z</time>
      </trkpt>
      <trkpt lat="45.61214" lon="4.68044">
        <ele>373.13</ele>
        <time>2017-11-19T07:38:40Z</time>
      </trkpt>
      <trkpt lat="45.61194" lon="4.68158">
        <ele>364.96</ele>
        <time>2017-11-19T07:38:50Z</time>
      </trkpt>
      <trkpt lat="45.61142" lon="4.68342">
        <ele>354.86</ele>
        <time>2017-11-19T07:39:05Z</time>
      </trkpt>
      <trkpt lat="45.61096" lon="4.684">
        <ele>345.25</ele>
        <time>2017-11-19T07:39:14Z</time>
      </trkpt>
      <trkpt lat="45.61035" lon="4.68533">
        <ele>337.08</ele>
        <time>2017-11-19T07:39:34Z</time>
      </trkpt>
      <trkpt lat="45.6094" lon="4.68701">
        <ele>325.54</ele>
        <time>2017-11-19T07:40:00Z</time>
      </trkpt>
      <trkpt lat="45.60891" lon="4.68904">
        <ele>318.81</ele>
        <time>2017-11-19T07:40:21Z</time>
      </trkpt>
      <trkpt lat="45.60883" lon="4.69015">
        <ele>320.74</ele>
        <time>2017-11-19T07:40:37Z</time>
      </trkpt>
      <trkpt lat="45.60822" lon="4.69119">
        <ele>320.74</ele>
        <time>2017-11-19T07:40:56Z</time>
      </trkpt>
      <trkpt lat="45.60647" lon="4.68995">
        <ele>309.68</ele>
        <time>2017-11-19T07:41:27Z</time>
      </trkpt>
      <trkpt lat="45.60571" lon="4.69118">
        <ele>309.68</ele>
        <time>2017-11-19T07:41:51Z</time>
      </trkpt>
      <trkpt lat="45.60396" lon="4.69073">
        <ele>305.84</ele>
        <time>2017-11-19T07:42:29Z</time>
      </trkpt>
      <trkpt lat="45.60163" lon="4.69163">
        <ele>315.45</ele>
        <time>2017-11-19T07:43:36Z</time>
      </trkpt>
      <trkpt lat="45.60015" lon="4.69015">
        <ele>328.43</ele>
        <time>2017-11-19T07:44:56Z</time>
      </trkpt>
      <trkpt lat="45.59943" lon="4.68872">
        <ele>330.83</ele>
        <time>2017-11-19T07:45:43Z</time>
      </trkpt>
      <trkpt lat="45.59778" lon="4.6868">
        <ele>338.52</ele>
        <time>2017-11-19T07:46:56Z</time>
      </trkpt>
      <trkpt lat="45.59643" lon="4.69011">
        <ele>346.21</ele>
        <time>2017-11-19T07:48:37Z</time>
      </trkpt>
      <trkpt lat="45.59574" lon="4.69053">
        <ele>350.06</ele>
        <time>2017-11-19T07:49:04Z</time>
      </trkpt>
      <trkpt lat="45.59408" lon="4.69176">
        <ele>353.42</ele>
        <time>2017-11-19T07:50:03Z</time>
      </trkpt>
      <trkpt lat="45.59229" lon="4.69232">
        <ele>350.06</ele>
        <time>2017-11-19T07:50:46Z</time>
      </trkpt>
      <trkpt lat="45.58989" lon="4.69927">
        <ele>329.87</ele>
        <time>2017-11-19T07:53:14Z</time>
      </trkpt>
      <trkpt lat="45.58694" lon="4.70035">
        <ele>320.74</ele>
        <time>2017-11-19T07:54:19Z</time>
      </trkpt>
      <trkpt lat="45.588" lon="4.70351">
        <ele>316.89</ele>
        <time>2017-11-19T07:55:11Z</time>
      </trkpt>
      <trkpt lat="45.58764" lon="4.70471">
        <ele>313.05</ele>
        <time>2017-11-19T07:55:32Z</time>
      </trkpt>
      <trkpt lat="45.58572" lon="4.70409">
        <ele>292.86</ele>
        <time>2017-11-19T07:56:14Z</time>
      </trkpt>
      <trkpt lat="45.58549" lon="4.70456">
        <ele>290.94</ele>
        <time>2017-11-19T07:56:26Z</time>
      </trkpt>
      <trkpt lat="45.58397" lon="4.70536">
        <ele>278.44</ele>
        <time>2017-11-19T07:57:15Z</time>
      </trkpt>
      <trkpt lat="45.58313" lon="4.70681">
        <ele>268.35</ele>
        <time>2017-11-19T08:07:14Z</time>
      </trkpt>
      <trkpt lat="45.58209" lon="4.70781">
        <ele>259.21</ele>
        <time>2017-11-19T08:08:19Z</time>
      </trkpt>
      <trkpt lat="45.58149" lon="4.70874">
        <ele>253.93</ele>
        <time>2017-11-19T08:08:59Z</time>
      </trkpt>
      <trkpt lat="45.58115" lon="4.71043">
        <ele>239.02</ele>
        <time>2017-11-19T08:10:22Z</time>
      </trkpt>
      <trkpt lat="45.58055" lon="4.71087">
        <ele>234.22</ele>
        <time>2017-11-19T08:10:46Z</time>
      </trkpt>
      <trkpt lat="45.58104" lon="4.71204">
        <ele>242.39</ele>
        <time>2017-11-19T08:11:46Z</time>
      </trkpt>
      <trkpt lat="45.58022" lon="4.71165">
        <ele>246.72</ele>
        <time>2017-11-19T08:12:28Z</time>
      </trkpt>
      <trkpt lat="45.57929" lon="4.71232">
        <ele>263.06</ele>
        <time>2017-11-19T08:14:02Z</time>
      </trkpt>
      <trkpt lat="45.57928" lon="4.71234">
        <ele>263.06</ele>
        <time>2017-11-19T08:14:06Z</time>
      </trkpt>
      <trkpt lat="45.5802" lon="4.71301">
        <ele>282.28</ele>
        <time>2017-11-19T08:15:40Z</time>
      </trkpt>
      <trkpt lat="45.58071" lon="4.71367">
        <ele>287.09</ele>
        <time>2017-11-19T08:16:21Z</time>
      </trkpt>
      <trkpt lat="45.5809" lon="4.71449">
        <ele>295.26</ele>
        <time>2017-11-19T08:17:03Z</time>
      </trkpt>
      <trkpt lat="45.58177" lon="4.71527">
        <ele>306.8</ele>
        <time>2017-11-19T08:18:15Z</time>
      </trkpt>
      <trkpt lat="45.58366" lon="4.71573">
        <ele>319.3</ele>
        <time>2017-11-19T08:19:42Z</time>
      </trkpt>
      <trkpt lat="45.58464" lon="4.71557">
        <ele>327.95</ele>
        <time>2017-11-19T08:20:30Z</time>
      </trkpt>
      <trkpt lat="45.58633" lon="4.71534">
        <ele>332.75</ele>
        <time>2017-11-19T08:21:30Z</time>
      </trkpt>
      <trkpt lat="45.5865" lon="4.71588">
        <ele>331.79</ele>
        <time>2017-11-19T08:21:44Z</time>
      </trkpt>
      <trkpt lat="45.587" lon="4.71777">
        <ele>331.31</ele>
        <time>2017-11-19T08:22:18Z</time>
      </trkpt>
      <trkpt lat="45.58919" lon="4.71872">
        <ele>324.58</ele>
        <time>2017-11-19T08:23:22Z</time>
      </trkpt>
      <trkpt lat="45.58914" lon="4.72092">
        <ele>331.79</ele>
        <time>2017-11-19T08:24:12Z</time>
      </trkpt>
      <trkpt lat="45.58912" lon="4.72199">
        <ele>332.75</ele>
        <time>2017-11-19T08:24:37Z</time>
      </trkpt>
      <trkpt lat="45.58964" lon="4.7223">
        <ele>334.68</ele>
        <time>2017-11-19T08:24:53Z</time>
      </trkpt>
      <trkpt lat="45.59047" lon="4.72281">
        <ele>335.16</ele>
        <time>2017-11-19T08:25:16Z</time>
      </trkpt>
      <trkpt lat="45.59105" lon="4.72378">
        <ele>332.27</ele>
        <time>2017-11-19T08:25:33Z</time>
      </trkpt>
      <trkpt lat="45.5918" lon="4.72523">
        <ele>316.41</ele>
        <time>2017-11-19T08:25:54Z</time>
      </trkpt>
      <trkpt lat="45.59319" lon="4.72571">
        <ele>308.72</ele>
        <time>2017-11-19T08:26:20Z</time>
      </trkpt>
      <trkpt lat="45.59347" lon="4.72599">
        <ele>305.36</ele>
        <time>2017-11-19T08:26:26Z</time>
      </trkpt>
      <trkpt lat="45.5943" lon="4.72619">
        <ele>299.11</ele>
        <time>2017-11-19T08:26:37Z</time>
      </trkpt>
      <trkpt lat="45.59475" lon="4.7254">
        <ele>297.67</ele>
        <time>2017-11-19T08:26:49Z</time>
      </trkpt>
      <trkpt lat="45.59519" lon="4.72483">
        <ele>291.42</ele>
        <time>2017-11-19T08:26:58Z</time>
      </trkpt>
      <trkpt lat="45.59636" lon="4.72502">
        <ele>299.59</ele>
        <time>2017-11-19T08:27:25Z</time>
      </trkpt>
      <trkpt lat="45.59688" lon="4.72524">
        <ele>302.95</ele>
        <time>2017-11-19T08:27:49Z</time>
      </trkpt>
      <trkpt lat="45.59632" lon="4.72766">
        <ele>294.3</ele>
        <time>2017-11-19T08:28:27Z</time>
      </trkpt>
      <trkpt lat="45.59607" lon="4.7305">
        <ele>291.9</ele>
        <time>2017-11-19T08:29:08Z</time>
      </trkpt>
      <trkpt lat="45.59593" lon="4.73083">
        <ele>288.05</ele>
        <time>2017-11-19T08:29:15Z</time>
      </trkpt>
      <trkpt lat="45.59543" lon="4.73048">
        <ele>284.21</ele>
        <time>2017-11-19T08:29:29Z</time>
      </trkpt>
      <trkpt lat="45.59533" lon="4.73041">
        <ele>281.32</ele>
        <time>2017-11-19T08:29:34Z</time>
      </trkpt>
      <trkpt lat="45.59623" lon="4.73312">
        <ele>247.2</ele>
        <time>2017-11-19T08:30:23Z</time>
      </trkpt>
      <trkpt lat="45.59705" lon="4.7371">
        <ele>226.05</ele>
        <time>2017-11-19T08:31:16Z</time>
      </trkpt>
      <trkpt lat="45.5974" lon="4.7378">
        <ele>222.2</ele>
        <time>2017-11-19T08:31:27Z</time>
      </trkpt>
      <trkpt lat="45.59812" lon="4.73843">
        <ele>217.4</ele>
        <time>2017-11-19T08:31:43Z</time>
      </trkpt>
      <trkpt lat="45.59851" lon="4.73878">
        <ele>214.03</ele>
        <time>2017-11-19T08:31:57Z</time>
      </trkpt>
      <trkpt lat="45.60064" lon="4.73934">
        <ele>212.11</ele>
        <time>2017-11-19T08:33:16Z</time>
      </trkpt>
      <trkpt lat="45.60026" lon="4.73881">
        <ele>222.2</ele>
        <time>2017-11-19T08:35:20Z</time>
      </trkpt>
      <trkpt lat="45.60064" lon="4.73847">
        <ele>231.33</ele>
        <time>2017-11-19T08:36:16Z</time>
      </trkpt>
      <trkpt lat="45.60103" lon="4.73805">
        <ele>237.1</ele>
        <time>2017-11-19T08:36:53Z</time>
      </trkpt>
      <trkpt lat="45.60191" lon="4.73749">
        <ele>253.44</ele>
        <time>2017-11-19T08:38:41Z</time>
      </trkpt>
      <trkpt lat="45.60202" lon="4.73779">
        <ele>259.21</ele>
        <time>2017-11-19T08:39:29Z</time>
      </trkpt>
      <trkpt lat="45.60266" lon="4.73767">
        <ele>271.71</ele>
        <time>2017-11-19T08:40:53Z</time>
      </trkpt>
      <trkpt lat="45.60258" lon="4.73742">
        <ele>275.56</ele>
        <time>2017-11-19T08:41:23Z</time>
      </trkpt>
      <trkpt lat="45.60279" lon="4.73674">
        <ele>282.28</ele>
        <time>2017-11-19T08:42:08Z</time>
      </trkpt>
      <trkpt lat="45.6034" lon="4.73548">
        <ele>293.34</ele>
        <time>2017-11-19T08:43:26Z</time>
      </trkpt>
      <trkpt lat="45.60382" lon="4.73386">
        <ele>299.11</ele>
        <time>2017-11-19T08:45:58Z</time>
      </trkpt>
      <trkpt lat="45.604" lon="4.73145">
        <ele>304.88</ele>
        <time>2017-11-19T08:46:59Z</time>
      </trkpt>
      <trkpt lat="45.6067" lon="4.73273">
        <ele>318.81</ele>
        <time>2017-11-19T08:49:09Z</time>
      </trkpt>
      <trkpt lat="45.60789" lon="4.73341">
        <ele>314.97</ele>
        <time>2017-11-19T08:49:42Z</time>
      </trkpt>
      <trkpt lat="45.60741" lon="4.73552">
        <ele>306.8</ele>
        <time>2017-11-19T08:50:13Z</time>
      </trkpt>
      <trkpt lat="45.60737" lon="4.74302">
        <ele>299.11</ele>
        <time>2017-11-19T08:51:45Z</time>
      </trkpt>
      <trkpt lat="45.60759" lon="4.74932">
        <ele>277.48</ele>
        <time>2017-11-19T08:52:53Z</time>
      </trkpt>
      <trkpt lat="45.60709" lon="4.75062">
        <ele>275.56</ele>
        <time>2017-11-19T08:53:17Z</time>
      </trkpt>
      <trkpt lat="45.60706" lon="4.75159">
        <ele>271.71</ele>
        <time>2017-11-19T08:53:29Z</time>
      </trkpt>
      <trkpt lat="45.60722" lon="4.75296">
        <ele>261.62</ele>
        <time>2017-11-19T08:53:43Z</time>
      </trkpt>
      <trkpt lat="45.60681" lon="4.75322">
        <ele>254.89</ele>
        <time>2017-11-19T08:53:52Z</time>
      </trkpt>
      <trkpt lat="45.60672" lon="4.75358">
        <ele>251.04</ele>
        <time>2017-11-19T08:53:59Z</time>
      </trkpt>
      <trkpt lat="45.60626" lon="4.75412">
        <ele>232.3</ele>
        <time>2017-11-19T08:54:25Z</time>
      </trkpt>
      <trkpt lat="45.60793" lon="4.75502">
        <ele>217.88</ele>
        <time>2017-11-19T08:55:34Z</time>
      </trkpt>
      <trkpt lat="45.60838" lon="4.75535">
        <ele>200.09</ele>
        <time>2017-11-19T08:56:19Z</time>
      </trkpt>
      <trkpt lat="45.60853" lon="4.75643">
        <ele>183.27</ele>
        <time>2017-11-19T08:56:44Z</time>
      </trkpt>
      <trkpt lat="45.60874" lon="4.75772">
        <ele>175.58</ele>
        <time>2017-11-19T08:56:56Z</time>
      </trkpt>
      <trkpt lat="45.60962" lon="4.75969">
        <ele>171.25</ele>
        <time>2017-11-23T13:39:02Z</time>
      </trkpt>
      <trkpt lat="45.6103" lon="4.76047">
        <ele>167.41</ele>
        <time>2017-11-23T13:39:23Z</time>
      </trkpt>
      <trkpt lat="45.61378" lon="4.76128">
        <ele>182.79</ele>
        <time>2017-11-23T13:46:48Z</time>
      </trkpt>
      <trkpt lat="45.61505" lon="4.76034">
        <ele>193.36</ele>
        <time>2017-11-23T13:51:13Z</time>
      </trkpt>
      <trkpt lat="45.61736" lon="4.7597">
        <ele>207.3</ele>
        <time>2017-11-23T13:54:33Z</time>
      </trkpt>
      <trkpt lat="45.61719" lon="4.75814">
        <ele>223.64</ele>
        <time>2017-11-23T13:59:48Z</time>
      </trkpt>
      <trkpt lat="45.61688" lon="4.75727">
        <ele>237.1</ele>
        <time>2017-11-23T14:02:43Z</time>
      </trkpt>
      <trkpt lat="45.6166" lon="4.75731">
        <ele>243.83</ele>
        <time>2017-11-23T14:03:33Z</time>
      </trkpt>
      <trkpt lat="45.61637" lon="4.75492">
        <ele>260.17</ele>
        <time>2017-11-23T14:05:45Z</time>
      </trkpt>
      <trkpt lat="45.61642" lon="4.75365">
        <ele>263.06</ele>
        <time>2017-11-23T14:09:39Z</time>
      </trkpt>
      <trkpt lat="45.61712" lon="4.75218">
        <ele>273.63</ele>
        <time>2017-11-23T14:13:34Z</time>
      </trkpt>
      <trkpt lat="45.61737" lon="4.75152">
        <ele>277</ele>
        <time>2017-11-23T14:14:08Z</time>
      </trkpt>
      <trkpt lat="45.61746" lon="4.75077">
        <ele>280.84</ele>
        <time>2017-11-23T14:14:40Z</time>
      </trkpt>
      <trkpt lat="45.61802" lon="4.74983">
        <ele>279.88</ele>
        <time>2017-11-23T14:15:10Z</time>
      </trkpt>
      <trkpt lat="45.61896" lon="4.74886">
        <ele>280.84</ele>
        <time>2017-11-23T14:15:45Z</time>
      </trkpt>
      <trkpt lat="45.62045" lon="4.74792">
        <ele>287.57</ele>
        <time>2017-11-23T14:16:46Z</time>
      </trkpt>
      <trkpt lat="45.61964" lon="4.74659">
        <ele>263.06</ele>
        <time>2017-11-22T09:14:12Z</time>
      </trkpt>
      <trkpt lat="45.61956" lon="4.74532">
        <ele>267.38</ele>
        <time>2017-11-22T09:19:54Z</time>
      </trkpt>
      <trkpt lat="45.61934" lon="4.74451">
        <ele>266.9</ele>
        <time>2017-11-22T09:20:12Z</time>
      </trkpt>
      <trkpt lat="45.61967" lon="4.74348">
        <ele>267.86</ele>
        <time>2017-11-22T09:20:38Z</time>
      </trkpt>
      <trkpt lat="45.6196" lon="4.74246">
        <ele>271.71</ele>
        <time>2017-11-22T09:23:06Z</time>
      </trkpt>
      <trkpt lat="45.6196" lon="4.74243">
        <ele>271.71</ele>
        <time>2017-11-22T09:23:07Z</time>
      </trkpt>
      <trkpt lat="45.6204" lon="4.74105">
        <ele>276.52</ele>
        <time>2017-11-22T09:23:43Z</time>
      </trkpt>
      <trkpt lat="45.62153" lon="4.73866">
        <ele>273.63</ele>
        <time>2017-11-22T09:24:32Z</time>
      </trkpt>
      <trkpt lat="45.62307" lon="4.73892">
        <ele>274.11</ele>
        <time>2017-11-22T09:27:14Z</time>
      </trkpt>
      <trkpt lat="45.62406" lon="4.73882">
        <ele>273.63</ele>
        <time>2017-11-22T09:27:34Z</time>
      </trkpt>
      <trkpt lat="45.62479" lon="4.73957">
        <ele>274.11</ele>
        <time>2017-11-22T09:27:53Z</time>
      </trkpt>
      <trkpt lat="45.62598" lon="4.74186">
        <ele>282.28</ele>
        <time>2017-11-22T09:30:47Z</time>
      </trkpt>
      <trkpt lat="45.627" lon="4.74474">
        <ele>298.15</ele>
        <time>2017-11-22T09:32:26Z</time>
      </trkpt>
      <trkpt lat="45.62701" lon="4.74475">
        <ele>298.15</ele>
        <time>2017-11-22T09:32:27Z</time>
      </trkpt>
      <trkpt lat="45.62835" lon="4.74446">
        <ele>308.72</ele>
        <time>2017-11-22T09:42:20Z</time>
      </trkpt>
      <trkpt lat="45.62903" lon="4.74551">
        <ele>319.3</ele>
        <time>2017-11-22T09:45:32Z</time>
      </trkpt>
      <trkpt lat="45.62931" lon="4.745">
        <ele>312.09</ele>
        <time>2017-11-22T09:46:07Z</time>
      </trkpt>
      <trkpt lat="45.6301" lon="4.74372">
        <ele>294.3</ele>
        <time>2017-11-22T09:46:31Z</time>
      </trkpt>
      <trkpt lat="45.62989" lon="4.74296">
        <ele>292.86</ele>
        <time>2017-11-22T09:47:01Z</time>
      </trkpt>
      <trkpt lat="45.63062" lon="4.74005">
        <ele>292.38</ele>
        <time>2017-11-22T09:47:55Z</time>
      </trkpt>
      <trkpt lat="45.63065" lon="4.73983">
        <ele>291.42</ele>
        <time>2017-11-22T09:49:17Z</time>
      </trkpt>
      <trkpt lat="45.63332" lon="4.73898">
        <ele>292.86</ele>
        <time>2017-11-22T09:50:57Z</time>
      </trkpt>
      <trkpt lat="45.63397" lon="4.73933">
        <ele>288.05</ele>
        <time>2017-11-22T09:51:11Z</time>
      </trkpt>
      <trkpt lat="45.63696" lon="4.73928">
        <ele>285.65</ele>
        <time>2017-11-22T09:55:41Z</time>
      </trkpt>
      <trkpt lat="45.63846" lon="4.74033">
        <ele>292.38</ele>
        <time>2017-11-22T09:59:13Z</time>
      </trkpt>
      <trkpt lat="45.63899" lon="4.74074">
        <ele>289.49</ele>
        <time>2017-11-22T10:02:24Z</time>
      </trkpt>
      <trkpt lat="45.64116" lon="4.74092">
        <ele>284.21</ele>
        <time>2017-11-22T10:06:50Z</time>
      </trkpt>
      <trkpt lat="45.6413" lon="4.74078">
        <ele>285.65</ele>
        <time>2017-11-22T10:10:09Z</time>
      </trkpt>
      <trkpt lat="45.64186" lon="4.74121">
        <ele>282.77</ele>
        <time>2017-11-22T10:10:24Z</time>
      </trkpt>
      <trkpt lat="45.64157" lon="4.73931">
        <ele>286.13</ele>
        <time>2017-11-22T10:11:13Z</time>
      </trkpt>
      <trkpt lat="45.64173" lon="4.73771">
        <ele>295.74</ele>
        <time>2017-11-22T10:12:12Z</time>
      </trkpt>
      <trkpt lat="45.64174" lon="4.73771">
        <ele>295.74</ele>
        <time>2017-11-22T10:12:26Z</time>
      </trkpt>
      <trkpt lat="45.64114" lon="4.73625">
        <ele>304.88</ele>
        <time>2017-11-22T10:15:24Z</time>
      </trkpt>
      <trkpt lat="45.64105" lon="4.73364">
        <ele>317.85</ele>
        <time>2017-11-22T10:16:49Z</time>
      </trkpt>
      <trkpt lat="45.64152" lon="4.73235">
        <ele>326.02</ele>
        <time>2017-11-22T10:17:40Z</time>
      </trkpt>
      <trkpt lat="45.64165" lon="4.72927">
        <ele>346.21</ele>
        <time>2017-11-22T10:23:05Z</time>
      </trkpt>
      <trkpt lat="45.64172" lon="4.72826">
        <ele>351.02</ele>
        <time>2017-11-22T10:23:38Z</time>
      </trkpt>
      <trkpt lat="45.64113" lon="4.72193">
        <ele>347.65</ele>
        <time>2017-11-22T10:45:54Z</time>
      </trkpt>
      <trkpt lat="45.64091" lon="4.72091">
        <ele>350.06</ele>
        <time>2017-11-22T10:51:45Z</time>
      </trkpt>
      <trkpt lat="45.64111" lon="4.72085">
        <ele>350.06</ele>
        <time>2017-11-22T10:53:38Z</time>
      </trkpt>
      <trkpt lat="45.6419" lon="4.71956">
        <ele>349.58</ele>
        <time>2017-11-22T10:55:09Z</time>
      </trkpt>
      <trkpt lat="45.64566" lon="4.72079">
        <ele>314.97</ele>
        <time>2017-11-22T10:58:54Z</time>
      </trkpt>
      <trkpt lat="45.64955" lon="4.72438">
        <ele>298.63</ele>
        <time>2017-11-22T11:03:24Z</time>
      </trkpt>
      <trkpt lat="45.64982" lon="4.72465">
        <ele>296.22</ele>
        <time>2017-11-22T11:03:33Z</time>
      </trkpt>
      <trkpt lat="45.64978" lon="4.72541">
        <ele>294.78</ele>
        <time>2017-11-22T11:03:45Z</time>
      </trkpt>
      <trkpt lat="45.65017" lon="4.72692">
        <ele>277.96</ele>
        <time>2017-11-22T11:04:10Z</time>
      </trkpt>
      <trkpt lat="45.65131" lon="4.72786">
        <ele>255.85</ele>
        <time>2017-11-22T11:06:43Z</time>
      </trkpt>
      <trkpt lat="45.65199" lon="4.72882">
        <ele>243.35</ele>
        <time>2017-11-22T11:07:37Z</time>
      </trkpt>
      <trkpt lat="45.65205" lon="4.73124">
        <ele>243.35</ele>
        <time>2017-11-22T11:11:54Z</time>
      </trkpt>
      <trkpt lat="45.65144" lon="4.73287">
        <ele>239.51</ele>
        <time>2017-11-22T11:12:18Z</time>
      </trkpt>
      <trkpt lat="45.65164" lon="4.73517">
        <ele>238.54</ele>
        <time>2017-11-22T11:12:54Z</time>
      </trkpt>
      <trkpt lat="45.65166" lon="4.73719">
        <ele>232.78</ele>
        <time>2017-11-22T11:13:16Z</time>
      </trkpt>
      <trkpt lat="45.65218" lon="4.73852">
        <ele>232.3</ele>
        <time>2017-11-22T11:19:51Z</time>
      </trkpt>
      <trkpt lat="45.6523" lon="4.73894">
        <ele>231.33</ele>
        <time>2017-11-22T11:20:03Z</time>
      </trkpt>
      <trkpt lat="45.65333" lon="4.74156">
        <ele>234.22</ele>
        <time>2017-11-22T11:21:05Z</time>
      </trkpt>
      <trkpt lat="45.65401" lon="4.74214">
        <ele>232.78</ele>
        <time>2017-11-22T12:47:11Z</time>
      </trkpt>
      <trkpt lat="45.65354" lon="4.74133">
        <ele>238.54</ele>
        <time>2017-11-22T12:48:03Z</time>
      </trkpt>
      <trkpt lat="45.65418" lon="4.7414">
        <ele>251.04</ele>
        <time>2017-11-22T12:51:56Z</time>
      </trkpt>
      <trkpt lat="45.65398" lon="4.74122">
        <ele>252.96</ele>
        <time>2017-11-22T12:52:11Z</time>
      </trkpt>
      <trkpt lat="45.65401" lon="4.74073">
        <ele>256.81</ele>
        <time>2017-11-22T12:52:38Z</time>
      </trkpt>
      <trkpt lat="45.65467" lon="4.74008">
        <ele>262.58</ele>
        <time>2017-11-22T12:54:08Z</time>
      </trkpt>
      <trkpt lat="45.65496" lon="4.73852">
        <ele>278.92</ele>
        <time>2017-11-22T12:58:23Z</time>
      </trkpt>
      <trkpt lat="45.65498" lon="4.73818">
        <ele>281.32</ele>
        <time>2017-11-22T13:01:01Z</time>
      </trkpt>
      <trkpt lat="45.65517" lon="4.7365">
        <ele>288.05</ele>
        <time>2017-11-22T13:04:37Z</time>
      </trkpt>
      <trkpt lat="45.65535" lon="4.73312">
        <ele>287.57</ele>
        <time>2017-11-22T13:05:49Z</time>
      </trkpt>
      <trkpt lat="45.65585" lon="4.73145">
        <ele>290.94</ele>
        <time>2017-11-22T13:06:24Z</time>
      </trkpt>
      <trkpt lat="45.6559" lon="4.73019">
        <ele>297.67</ele>
        <time>2017-11-22T13:09:05Z</time>
      </trkpt>
      <trkpt lat="45.65675" lon="4.72871">
        <ele>295.26</ele>
        <time>2017-11-22T13:09:48Z</time>
      </trkpt>
      <trkpt lat="45.6578" lon="4.72504">
        <ele>295.74</ele>
        <time>2017-11-22T13:12:53Z</time>
      </trkpt>
      <trkpt lat="45.65787" lon="4.72501">
        <ele>294.78</ele>
        <time>2017-11-22T13:13:30Z</time>
      </trkpt>
      <trkpt lat="45.65817" lon="4.72258">
        <ele>301.03</ele>
        <time>2017-11-22T13:17:27Z</time>
      </trkpt>
      <trkpt lat="45.65842" lon="4.72077">
        <ele>300.55</ele>
        <time>2017-11-22T13:18:04Z</time>
      </trkpt>
      <trkpt lat="45.66008" lon="4.72127">
        <ele>281.32</ele>
        <time>2017-11-22T13:21:01Z</time>
      </trkpt>
      <trkpt lat="45.6613" lon="4.72156">
        <ele>265.46</ele>
        <time>2017-11-22T13:22:55Z</time>
      </trkpt>
      <trkpt lat="45.66127" lon="4.72196">
        <ele>269.31</ele>
        <time>2017-11-22T13:25:10Z</time>
      </trkpt>
      <trkpt lat="45.66132" lon="4.72075">
        <ele>278.44</ele>
        <time>2017-11-22T13:27:02Z</time>
      </trkpt>
      <trkpt lat="45.66115" lon="4.71851">
        <ele>279.88</ele>
        <time>2017-11-22T13:31:29Z</time>
      </trkpt>
      <trkpt lat="45.66133" lon="4.71767">
        <ele>277.96</ele>
        <time>2017-11-22T13:31:51Z</time>
      </trkpt>
      <trkpt lat="45.66192" lon="4.71739">
        <ele>291.42</ele>
        <time>2017-11-22T13:33:46Z</time>
      </trkpt>
      <trkpt lat="45.66218" lon="4.71668">
        <ele>288.53</ele>
        <time>2017-11-22T13:39:28Z</time>
      </trkpt>
      <trkpt lat="45.66434" lon="4.71747">
        <ele>327.95</ele>
        <time>2017-11-22T14:18:24Z</time>
      </trkpt>
      <trkpt lat="45.66646" lon="4.71807">
        <ele>321.7</ele>
        <time>2017-11-22T14:19:24Z</time>
      </trkpt>
      <trkpt lat="45.66776" lon="4.71762">
        <ele>320.74</ele>
        <time>2017-11-22T14:25:12Z</time>
      </trkpt>
      <trkpt lat="45.66892" lon="4.71749">
        <ele>319.3</ele>
        <time>2017-11-22T14:25:39Z</time>
      </trkpt>
      <trkpt lat="45.66932" lon="4.71709">
        <ele>319.3</ele>
        <time>2017-11-22T14:25:51Z</time>
      </trkpt>
      <trkpt lat="45.67099" lon="4.71759">
        <ele>328.91</ele>
        <time>2017-11-22T14:26:48Z</time>
      </trkpt>
      <trkpt lat="45.67538" lon="4.71741">
        <ele>329.39</ele>
        <time>2017-11-22T14:31:40Z</time>
      </trkpt>
      <trkpt lat="45.67974" lon="4.72075">
        <ele>339.48</ele>
        <time>2017-11-22T14:36:27Z</time>
      </trkpt>
      <trkpt lat="45.68015" lon="4.71894">
        <ele>337.56</ele>
        <time>2017-11-22T14:39:38Z</time>
      </trkpt>
      <trkpt lat="45.68117" lon="4.72012">
        <ele>339</ele>
        <time>2017-11-22T14:41:53Z</time>
      </trkpt>
      <trkpt lat="45.68441" lon="4.72332">
        <ele>333.23</ele>
        <time>2017-11-22T14:45:18Z</time>
      </trkpt>
      <trkpt lat="45.68555" lon="4.72467">
        <ele>322.66</ele>
        <time>2017-11-22T14:47:26Z</time>
      </trkpt>
      <trkpt lat="45.68624" lon="4.72594">
        <ele>318.81</ele>
        <time>2017-11-22T14:47:51Z</time>
      </trkpt>
      <trkpt lat="45.68671" lon="4.72469">
        <ele>312.57</ele>
        <time>2017-11-22T14:51:12Z</time>
      </trkpt>
      <trkpt lat="45.68641" lon="4.7226">
        <ele>315.45</ele>
        <time>2017-11-22T14:52:29Z</time>
      </trkpt>
      <trkpt lat="45.68603" lon="4.72105">
        <ele>311.12</ele>
        <time>2017-11-22T14:52:53Z</time>
      </trkpt>
      <trkpt lat="45.68616" lon="4.71975">
        <ele>305.84</ele>
        <time>2017-11-22T14:57:10Z</time>
      </trkpt>
      <trkpt lat="45.6864" lon="4.71902">
        <ele>304.39</ele>
        <time>2017-11-22T14:57:23Z</time>
      </trkpt>
      <trkpt lat="45.68656" lon="4.71805">
        <ele>297.18</ele>
        <time>2017-11-22T15:00:48Z</time>
      </trkpt>
      <trkpt lat="45.68692" lon="4.71722">
        <ele>288.05</ele>
        <time>2017-11-22T15:01:04Z</time>
      </trkpt>
      <trkpt lat="45.68755" lon="4.71672">
        <ele>274.59</ele>
        <time>2017-11-22T15:01:39Z</time>
      </trkpt>
      <trkpt lat="45.68792" lon="4.71626">
        <ele>260.17</ele>
        <time>2017-11-22T15:01:59Z</time>
      </trkpt>
      <trkpt lat="45.68808" lon="4.71573">
        <ele>261.14</ele>
        <time>2017-11-22T15:04:30Z</time>
      </trkpt>
      <trkpt lat="45.6888" lon="4.71667">
        <ele>274.59</ele>
        <time>2017-11-22T15:06:20Z</time>
      </trkpt>
      <trkpt lat="45.68932" lon="4.71633">
        <ele>284.21</ele>
        <time>2017-11-22T15:07:18Z</time>
      </trkpt>
      <trkpt lat="45.68949" lon="4.71437">
        <ele>306.8</ele>
        <time>2017-11-22T15:09:50Z</time>
      </trkpt>
      <trkpt lat="45.6895" lon="4.71433">
        <ele>305.84</ele>
        <time>2017-11-22T15:09:53Z</time>
      </trkpt>
      <trkpt lat="45.688" lon="4.71304">
        <ele>309.68</ele>
        <time>2017-11-22T15:14:18Z</time>
      </trkpt>
      <trkpt lat="45.68712" lon="4.70956">
        <ele>326.99</ele>
        <time>2017-11-22T15:20:26Z</time>
      </trkpt>
      <trkpt lat="45.68474" lon="4.70673">
        <ele>344.77</ele>
        <time>2017-11-22T15:25:16Z</time>
      </trkpt>
      <trkpt lat="45.68517" lon="4.7027">
        <ele>352.46</ele>
        <time>2017-11-22T15:37:19Z</time>
      </trkpt>
      <trkpt lat="45.68454" lon="4.70083">
        <ele>353.42</ele>
        <time>2017-11-22T15:40:52Z</time>
      </trkpt>
      <trkpt lat="45.68443" lon="4.70006">
        <ele>354.86</ele>
        <time>2017-11-22T15:41:07Z</time>
      </trkpt>
      <trkpt lat="45.68371" lon="4.69959">
        <ele>357.27</ele>
        <time>2017-11-22T15:41:37Z</time>
      </trkpt>
      <trkpt lat="45.68486" lon="4.69613">
        <ele>341.41</ele>
        <time>2017-11-22T15:46:18Z</time>
      </trkpt>
      <trkpt lat="45.68518" lon="4.69428">
        <ele>335.64</ele>
        <time>2017-11-22T15:46:39Z</time>
      </trkpt>
      <trkpt lat="45.68578" lon="4.69238">
        <ele>326.99</ele>
        <time>2017-11-22T15:49:14Z</time>
      </trkpt>
      <trkpt lat="45.6854" lon="4.68914">
        <ele>323.14</ele>
        <time>2017-11-22T15:51:59Z</time>
      </trkpt>
      <trkpt lat="45.6842" lon="4.68618">
        <ele>327.47</ele>
        <time>2017-11-22T15:53:13Z</time>
      </trkpt>
      <trkpt lat="45.68377" lon="4.68532">
        <ele>326.99</ele>
        <time>2017-11-22T15:53:32Z</time>
      </trkpt>
      <trkpt lat="45.6834" lon="4.68464">
        <ele>323.62</ele>
        <time>2017-11-22T15:53:42Z</time>
      </trkpt>
      <trkpt lat="45.68309" lon="4.684">
        <ele>321.22</ele>
        <time>2017-11-22T15:53:50Z</time>
      </trkpt>
      <trkpt lat="45.68285" lon="4.68083">
        <ele>328.43</ele>
        <time>2017-11-22T15:56:20Z</time>
      </trkpt>
      <trkpt lat="45.68283" lon="4.6807">
        <ele>328.43</ele>
        <time>2017-11-22T15:56:24Z</time>
      </trkpt>
      <trkpt lat="45.68231" lon="4.67722">
        <ele>323.14</ele>
        <time>2017-11-22T16:00:49Z</time>
      </trkpt>
      <trkpt lat="45.68124" lon="4.67748">
        <ele>338.04</ele>
        <time>2017-11-22T16:03:14Z</time>
      </trkpt>
      <trkpt lat="45.68067" lon="4.67705">
        <ele>343.81</ele>
        <time>2017-11-22T16:03:52Z</time>
      </trkpt>
      <trkpt lat="45.68054" lon="4.67776">
        <ele>347.17</ele>
        <time>2017-11-22T16:04:21Z</time>
      </trkpt>
      <trkpt lat="45.67716" lon="4.67933">
        <ele>371.69</ele>
        <time>2017-11-22T16:13:23Z</time>
      </trkpt>
      <trkpt lat="45.67579" lon="4.67958">
        <ele>383.22</ele>
        <time>2017-11-22T16:14:28Z</time>
      </trkpt>
      <trkpt lat="45.67507" lon="4.67914">
        <ele>389.95</ele>
        <time>2017-11-22T16:15:10Z</time>
      </trkpt>
      <trkpt lat="45.67423" lon="4.678">
        <ele>388.51</ele>
        <time>2017-11-22T16:15:42Z</time>
      </trkpt>
      <trkpt lat="45.67352" lon="4.67883">
        <ele>393.8</ele>
        <time>2017-11-22T16:16:17Z</time>
      </trkpt>
      <trkpt lat="45.67251" lon="4.68004">
        <ele>393.32</ele>
        <time>2017-11-22T16:16:57Z</time>
      </trkpt>
      <trkpt lat="45.67221" lon="4.68093">
        <ele>387.55</ele>
        <time>2017-11-22T16:17:48Z</time>
      </trkpt>
      <trkpt lat="45.67134" lon="4.67677">
        <ele>406.77</ele>
        <time>2017-11-22T16:21:54Z</time>
      </trkpt>
      <trkpt lat="45.6712" lon="4.67529">
        <ele>407.26</ele>
        <time>2017-11-22T16:22:27Z</time>
      </trkpt>
      <trkpt lat="45.66992" lon="4.67222">
        <ele>413.98</ele>
        <time>2017-11-22T16:23:36Z</time>
      </trkpt>
      <trkpt lat="45.66967" lon="4.67132">
        <ele>413.02</ele>
        <time>2017-11-22T16:23:50Z</time>
      </trkpt>
      <trkpt lat="45.66929" lon="4.67138">
        <ele>414.95</ele>
        <time>2017-11-22T16:24:07Z</time>
      </trkpt>
      <trkpt lat="45.66953" lon="4.67126">
        <ele>418.79</ele>
        <time>2017-12-07T09:26:40Z</time>
      </trkpt>
      <trkpt lat="45.66934" lon="4.67096">
        <ele>421.68</ele>
        <time>2017-12-07T09:26:56Z</time>
      </trkpt>
      <trkpt lat="45.66843" lon="4.66897">
        <ele>428.89</ele>
        <time>2017-12-07T09:28:10Z</time>
      </trkpt>
      <trkpt lat="45.66739" lon="4.66747">
        <ele>442.82</ele>
        <time>2017-12-07T09:31:17Z</time>
      </trkpt>
      <trkpt lat="45.66719" lon="4.6682">
        <ele>445.23</ele>
        <time>2017-12-07T09:33:03Z</time>
      </trkpt>
      <trkpt lat="45.66677" lon="4.66866">
        <ele>443.31</ele>
        <time>2017-12-07T09:33:22Z</time>
      </trkpt>
      <trkpt lat="45.66642" lon="4.66748">
        <ele>449.07</ele>
        <time>2017-12-07T09:37:05Z</time>
      </trkpt>
      <trkpt lat="45.66599" lon="4.66662">
        <ele>453.4</ele>
        <time>2017-12-07T09:37:29Z</time>
      </trkpt>
      <trkpt lat="45.66457" lon="4.66577">
        <ele>455.32</ele>
        <time>2017-12-07T09:38:19Z</time>
      </trkpt>
      <trkpt lat="45.66345" lon="4.66585">
        <ele>455.8</ele>
        <time>2017-12-07T09:38:47Z</time>
      </trkpt>
      <trkpt lat="45.66318" lon="4.66621">
        <ele>455.32</ele>
        <time>2017-12-07T09:39:12Z</time>
      </trkpt>
      <trkpt lat="45.66279" lon="4.66594">
        <ele>458.21</ele>
        <time>2017-12-07T09:40:06Z</time>
      </trkpt>
      <trkpt lat="45.66307" lon="4.66419">
        <ele>466.86</ele>
        <time>2017-12-07T09:43:43Z</time>
      </trkpt>
      <trkpt lat="45.6607" lon="4.6624">
        <ele>500.02</ele>
        <time>2017-12-07T09:47:24Z</time>
      </trkpt>
      <trkpt lat="45.66099" lon="4.6617">
        <ele>506.27</ele>
        <time>2017-12-07T09:51:18Z</time>
      </trkpt>
      <trkpt lat="45.66091" lon="4.66003">
        <ele>515.4</ele>
        <time>2017-12-07T09:52:34Z</time>
      </trkpt>
      <trkpt lat="45.66025" lon="4.65788">
        <ele>516.85</ele>
        <time>2017-12-07T09:56:28Z</time>
      </trkpt>
      <trkpt lat="45.6588" lon="4.65635">
        <ele>523.58</ele>
        <time>2017-12-07T09:57:39Z</time>
      </trkpt>
      <trkpt lat="45.6584" lon="4.65515">
        <ele>533.19</ele>
        <time>2017-12-07T09:58:47Z</time>
      </trkpt>
      <trkpt lat="45.65794" lon="4.65458">
        <ele>539.44</ele>
        <time>2017-12-07T09:59:33Z</time>
      </trkpt>
      <trkpt lat="45.65559" lon="4.65216">
        <ele>542.32</ele>
        <time>2017-12-07T10:03:03Z</time>
      </trkpt>
      <trkpt lat="45.65696" lon="4.65023">
        <ele>529.82</ele>
        <time>2017-12-07T10:05:54Z</time>
      </trkpt>
      <trkpt lat="45.65774" lon="4.6496">
        <ele>526.94</ele>
        <time>2017-12-07T10:06:52Z</time>
      </trkpt>
      <trkpt lat="45.65901" lon="4.6481">
        <ele>512.04</ele>
        <time>2017-12-07T10:10:15Z</time>
      </trkpt>
      <trkpt lat="45.6592" lon="4.64627">
        <ele>505.31</ele>
        <time>2017-12-07T10:10:42Z</time>
      </trkpt>
      <trkpt lat="45.65916" lon="4.64489">
        <ele>487.53</ele>
        <time>2017-12-07T10:11:06Z</time>
      </trkpt>
      <trkpt lat="45.65982" lon="4.64331">
        <ele>467.34</ele>
        <time>2017-12-07T10:11:37Z</time>
      </trkpt>
      <trkpt lat="45.65965" lon="4.64283">
        <ele>464.45</ele>
        <time>2017-12-07T10:11:45Z</time>
      </trkpt>
      <trkpt lat="45.65921" lon="4.6421">
        <ele>449.55</ele>
        <time>2017-12-07T10:12:02Z</time>
      </trkpt>
      <trkpt lat="45.65934" lon="4.64161">
        <ele>442.82</ele>
        <time>2017-12-07T10:12:11Z</time>
      </trkpt>
      <trkpt lat="45.66025" lon="4.64114">
        <ele>423.12</ele>
        <time>2017-12-07T10:12:35Z</time>
      </trkpt>
      <trkpt lat="45.65989" lon="4.63983">
        <ele>408.22</ele>
        <time>2017-12-07T10:12:54Z</time>
      </trkpt>
      <trkpt lat="45.65964" lon="4.63913">
        <ele>404.85</ele>
        <time>2017-12-07T10:13:44Z</time>
      </trkpt>
      <trkpt lat="45.6611" lon="4.63886">
        <ele>417.35</ele>
        <time>2017-12-07T10:16:35Z</time>
      </trkpt>
      <trkpt lat="45.66232" lon="4.63938">
        <ele>427.92</ele>
        <time>2017-12-07T10:17:34Z</time>
      </trkpt>
      <trkpt lat="45.66353" lon="4.63992">
        <ele>426.96</ele>
        <time>2017-12-07T10:18:26Z</time>
      </trkpt>
      <trkpt lat="45.66297" lon="4.63738">
        <ele>453.4</ele>
        <time>2017-12-07T10:23:15Z</time>
      </trkpt>
      <trkpt lat="45.66319" lon="4.6368">
        <ele>474.07</ele>
        <time>2017-12-07T10:27:43Z</time>
      </trkpt>
      <trkpt lat="45.66364" lon="4.63633">
        <ele>453.88</ele>
        <time>2017-12-07T10:28:32Z</time>
      </trkpt>
      <trkpt lat="45.66351" lon="4.63517">
        <ele>448.59</ele>
        <time>2017-12-07T10:31:55Z</time>
      </trkpt>
      <trkpt lat="45.66357" lon="4.63261">
        <ele>440.9</ele>
        <time>2017-12-07T10:32:20Z</time>
      </trkpt>
      <trkpt lat="45.66368" lon="4.63191">
        <ele>436.1</ele>
        <time>2017-12-07T10:32:28Z</time>
      </trkpt>
      <trkpt lat="45.66772" lon="4.63068">
        <ele>481.76</ele>
        <time>2017-12-07T10:41:37Z</time>
      </trkpt>
      <trkpt lat="45.66895" lon="4.63051">
        <ele>478.39</ele>
        <time>2017-12-07T10:42:19Z</time>
      </trkpt>
      <trkpt lat="45.66871" lon="4.62954">
        <ele>488.01</ele>
        <time>2017-12-07T10:43:18Z</time>
      </trkpt>
      <trkpt lat="45.66793" lon="4.62892">
        <ele>508.19</ele>
        <time>2017-12-07T10:50:32Z</time>
      </trkpt>
      <trkpt lat="45.66745" lon="4.62809">
        <ele>517.81</ele>
        <time>2017-12-07T10:53:55Z</time>
      </trkpt>
      <trkpt lat="45.6675" lon="4.62623">
        <ele>534.63</ele>
        <time>2017-12-07T10:55:53Z</time>
      </trkpt>
      <trkpt lat="45.66733" lon="4.62477">
        <ele>537.03</ele>
        <time>2017-12-07T10:56:47Z</time>
      </trkpt>
      <trkpt lat="45.6665" lon="4.62335">
        <ele>545.69</ele>
        <time>2017-12-07T10:57:51Z</time>
      </trkpt>
      <trkpt lat="45.66609" lon="4.62254">
        <ele>549.05</ele>
        <time>2017-12-07T10:58:39Z</time>
      </trkpt>
      <trkpt lat="45.66504" lon="4.61887">
        <ele>561.07</ele>
        <time>2017-12-07T11:04:31Z</time>
      </trkpt>
      <trkpt lat="45.66494" lon="4.61911">
        <ele>560.59</ele>
        <time>2017-12-07T11:04:39Z</time>
      </trkpt>
      <trkpt lat="45.66496" lon="4.61743">
        <ele>567.8</ele>
        <time>2017-12-07T12:34:20Z</time>
      </trkpt>
      <trkpt lat="45.66544" lon="4.61672">
        <ele>575.97</ele>
        <time>2017-12-07T12:37:37Z</time>
      </trkpt>
      <trkpt lat="45.66551" lon="4.61593">
        <ele>577.89</ele>
        <time>2017-12-07T12:38:07Z</time>
      </trkpt>
      <trkpt lat="45.66625" lon="4.60841">
        <ele>531.27</ele>
        <time>2017-12-07T12:53:19Z</time>
      </trkpt>
      <trkpt lat="45.66594" lon="4.60761">
        <ele>527.42</ele>
        <time>2017-12-07T12:58:53Z</time>
      </trkpt>
      <trkpt lat="45.66476" lon="4.60753">
        <ele>519.73</ele>
        <time>2017-12-07T12:59:13Z</time>
      </trkpt>
      <trkpt lat="45.66431" lon="4.60775">
        <ele>515.4</ele>
        <time>2017-12-07T12:59:21Z</time>
      </trkpt>
      <trkpt lat="45.66417" lon="4.6063">
        <ele>520.21</ele>
        <time>2017-12-07T13:01:48Z</time>
      </trkpt>
      <trkpt lat="45.66325" lon="4.60554">
        <ele>528.86</ele>
        <time>2017-12-07T13:02:36Z</time>
      </trkpt>
      <trkpt lat="45.66442" lon="4.60364">
        <ele>534.63</ele>
        <time>2017-12-07T13:04:17Z</time>
      </trkpt>
      <trkpt lat="45.66509" lon="4.60259">
        <ele>536.55</ele>
        <time>2017-12-07T13:04:49Z</time>
      </trkpt>
      <trkpt lat="45.66582" lon="4.60239">
        <ele>539.92</ele>
        <time>2017-12-07T13:05:19Z</time>
      </trkpt>
      <trkpt lat="45.66685" lon="4.60111">
        <ele>552.41</ele>
        <time>2017-12-07T13:06:38Z</time>
      </trkpt>
      <trkpt lat="45.66691" lon="4.60077">
        <ele>552.41</ele>
        <time>2017-12-07T13:06:54Z</time>
      </trkpt>
      <trkpt lat="45.66573" lon="4.60072">
        <ele>566.35</ele>
        <time>2017-12-07T13:11:27Z</time>
      </trkpt>
      <trkpt lat="45.66539" lon="4.59866">
        <ele>591.83</ele>
        <time>2017-12-07T13:16:37Z</time>
      </trkpt>
      <trkpt lat="45.66512" lon="4.59659">
        <ele>599.52</ele>
        <time>2017-12-07T13:19:46Z</time>
      </trkpt>
      <trkpt lat="45.66362" lon="4.59524">
        <ele>601.44</ele>
        <time>2017-12-07T13:20:56Z</time>
      </trkpt>
      <trkpt lat="45.66355" lon="4.59479">
        <ele>602.88</ele>
        <time>2017-12-07T13:21:23Z</time>
      </trkpt>
      <trkpt lat="45.66286" lon="4.59371">
        <ele>617.3</ele>
        <time>2017-12-07T13:24:44Z</time>
      </trkpt>
      <trkpt lat="45.66229" lon="4.59365">
        <ele>628.84</ele>
        <time>2017-12-07T13:26:07Z</time>
      </trkpt>
      <trkpt lat="45.66115" lon="4.59257">
        <ele>632.2</ele>
        <time>2017-12-07T13:27:19Z</time>
      </trkpt>
      <trkpt lat="45.66076" lon="4.59239">
        <ele>630.76</ele>
        <time>2017-12-07T13:27:34Z</time>
      </trkpt>
      <trkpt lat="45.65989" lon="4.5919">
        <ele>623.55</ele>
        <time>2017-12-07T13:27:57Z</time>
      </trkpt>
      <trkpt lat="45.65867" lon="4.59394">
        <ele>645.66</ele>
        <time>2017-12-07T13:34:58Z</time>
      </trkpt>
      <trkpt lat="45.6573" lon="4.59533">
        <ele>663.45</ele>
        <time>2017-12-07T13:37:14Z</time>
      </trkpt>
      <trkpt lat="45.65691" lon="4.59618">
        <ele>672.58</ele>
        <time>2017-12-07T13:42:54Z</time>
      </trkpt>
      <trkpt lat="45.65625" lon="4.59643">
        <ele>683.63</ele>
        <time>2017-12-07T13:46:24Z</time>
      </trkpt>
      <trkpt lat="45.65515" lon="4.59536">
        <ele>703.82</ele>
        <time>2017-12-07T13:49:33Z</time>
      </trkpt>
      <trkpt lat="45.65428" lon="4.59377">
        <ele>718.24</ele>
        <time>2017-12-07T13:51:57Z</time>
      </trkpt>
      <trkpt lat="45.65352" lon="4.59291">
        <ele>724.49</ele>
        <time>2017-12-07T13:53:07Z</time>
      </trkpt>
      <trkpt lat="45.652" lon="4.59226">
        <ele>736.99</ele>
        <time>2017-12-07T13:57:35Z</time>
      </trkpt>
      <trkpt lat="45.65188" lon="4.59221">
        <ele>736.99</ele>
        <time>2017-12-07T13:59:47Z</time>
      </trkpt>
      <trkpt lat="45.65016" lon="4.59233">
        <ele>741.79</ele>
        <time>2017-12-07T14:01:18Z</time>
      </trkpt>
      <trkpt lat="45.64926" lon="4.59111">
        <ele>736.51</ele>
        <time>2017-12-07T14:01:44Z</time>
      </trkpt>
      <trkpt lat="45.64806" lon="4.59171">
        <ele>745.16</ele>
        <time>2017-12-07T14:02:57Z</time>
      </trkpt>
      <trkpt lat="45.6478" lon="4.59245">
        <ele>753.33</ele>
        <time>2017-12-07T14:03:49Z</time>
      </trkpt>
      <trkpt lat="45.64759" lon="4.59264">
        <ele>758.62</ele>
        <time>2017-12-07T14:05:05Z</time>
      </trkpt>
      <trkpt lat="45.64651" lon="4.5914">
        <ele>778.32</ele>
        <time>2017-12-07T14:07:58Z</time>
      </trkpt>
      <trkpt lat="45.64609" lon="4.59328">
        <ele>787.46</ele>
        <time>2017-12-07T14:12:58Z</time>
      </trkpt>
      <trkpt lat="45.64526" lon="4.59369">
        <ele>800.44</ele>
        <time>2017-12-07T14:14:28Z</time>
      </trkpt>
      <trkpt lat="45.64424" lon="4.59467">
        <ele>814.37</ele>
        <time>2017-12-07T14:16:34Z</time>
      </trkpt>
      <trkpt lat="45.64357" lon="4.59662">
        <ele>835.04</ele>
        <time>2017-12-07T14:21:13Z</time>
      </trkpt>
      <trkpt lat="45.64315" lon="4.597">
        <ele>840.81</ele>
        <time>2017-12-07T14:25:17Z</time>
      </trkpt>
      <trkpt lat="45.6403" lon="4.59727">
        <ele>848.5</ele>
        <time>2017-12-07T14:30:05Z</time>
      </trkpt>
      <trkpt lat="45.63693" lon="4.59676">
        <ele>863.4</ele>
        <time>2017-12-07T14:33:12Z</time>
      </trkpt>
      <trkpt lat="45.63609" lon="4.59704">
        <ele>867.25</ele>
        <time>2017-12-07T14:34:03Z</time>
      </trkpt>
      <trkpt lat="45.63569" lon="4.59648">
        <ele>872.05</ele>
        <time>2017-12-07T14:38:16Z</time>
      </trkpt>
      <trkpt lat="45.63501" lon="4.59433">
        <ele>862.92</ele>
        <time>2017-12-07T14:40:00Z</time>
      </trkpt>
      <trkpt lat="45.63581" lon="4.59257">
        <ele>888.4</ele>
        <time>2017-12-07T14:47:51Z</time>
      </trkpt>
      <trkpt lat="45.63649" lon="4.59181">
        <ele>893.68</ele>
        <time>2017-12-07T14:54:03Z</time>
      </trkpt>
      <trkpt lat="45.63683" lon="4.59218">
        <ele>903.3</ele>
        <time>2017-12-07T14:54:54Z</time>
      </trkpt>
      <trkpt lat="45.63722" lon="4.59347">
        <ele>929.73</ele>
        <time>2017-12-07T14:57:32Z</time>
      </trkpt>
      <trkpt lat="45.63761" lon="4.59389">
        <ele>937.42</ele>
        <time>2017-12-07T14:58:18Z</time>
      </trkpt>
      <trkpt lat="45.63777" lon="4.59407">
        <ele>936.94</ele>
        <time>2017-12-07T15:01:34Z</time>
      </trkpt>
      <trkpt lat="45.63812" lon="4.59459">
        <ele>929.73</ele>
        <time>2017-12-07T15:01:49Z</time>
      </trkpt>
      <trkpt lat="45.63884" lon="4.59459">
        <ele>926.85</ele>
        <time>2017-12-07T15:02:05Z</time>
      </trkpt>
      <trkpt lat="45.63909" lon="4.59417">
        <ele>930.69</ele>
        <time>2017-12-07T15:02:26Z</time>
      </trkpt>
      <trkpt lat="45.63943" lon="4.59428">
        <ele>929.25</ele>
        <time>2017-12-07T15:04:32Z</time>
      </trkpt>
      <trkpt lat="45.63979" lon="4.59276">
        <ele>916.75</ele>
        <time>2017-12-07T15:05:04Z</time>
      </trkpt>
      <trkpt lat="45.63945" lon="4.59161">
        <ele>911.95</ele>
        <time>2017-12-07T15:05:48Z</time>
      </trkpt>
      <trkpt lat="45.6402" lon="4.5904">
        <ele>893.2</ele>
        <time>2017-12-07T15:06:19Z</time>
      </trkpt>
      <trkpt lat="45.64077" lon="4.58803">
        <ele>878.3</ele>
        <time>2017-12-07T15:11:23Z</time>
      </trkpt>
      <trkpt lat="45.63925" lon="4.58793">
        <ele>901.37</ele>
        <time>2017-12-07T15:14:20Z</time>
      </trkpt>
      <trkpt lat="45.63865" lon="4.58739">
        <ele>906.18</ele>
        <time>2017-12-07T15:15:16Z</time>
      </trkpt>
      <trkpt lat="45.63776" lon="4.58701">
        <ele>899.45</ele>
        <time>2017-12-07T15:15:55Z</time>
      </trkpt>
      <trkpt lat="45.63719" lon="4.58714">
        <ele>893.2</ele>
        <time>2017-12-07T15:16:25Z</time>
      </trkpt>
      <trkpt lat="45.63619" lon="4.58697">
        <ele>886.95</ele>
        <time>2017-12-07T15:16:52Z</time>
      </trkpt>
      <trkpt lat="45.63602" lon="4.58662">
        <ele>885.51</ele>
        <time>2017-12-07T15:20:01Z</time>
      </trkpt>
      <trkpt lat="45.63612" lon="4.58532">
        <ele>874.46</ele>
        <time>2017-12-07T15:20:35Z</time>
      </trkpt>
      <trkpt lat="45.63624" lon="4.58466">
        <ele>868.21</ele>
        <time>2017-12-07T15:22:53Z</time>
      </trkpt>
      <trkpt lat="45.63653" lon="4.58455">
        <ele>862.44</ele>
        <time>2018-01-11T09:28:37Z</time>
      </trkpt>
      <trkpt lat="45.63571" lon="4.58395">
        <ele>855.23</ele>
        <time>2018-01-11T09:29:05Z</time>
      </trkpt>
      <trkpt lat="45.63514" lon="4.58312">
        <ele>850.42</ele>
        <time>2018-01-11T09:29:19Z</time>
      </trkpt>
      <trkpt lat="45.63381" lon="4.58221">
        <ele>838.41</ele>
        <time>2018-01-11T09:34:02Z</time>
      </trkpt>
      <trkpt lat="45.63352" lon="4.58159">
        <ele>833.6</ele>
        <time>2018-01-11T09:34:17Z</time>
      </trkpt>
      <trkpt lat="45.63255" lon="4.58036">
        <ele>811.01</ele>
        <time>2018-01-11T09:34:46Z</time>
      </trkpt>
      <trkpt lat="45.63134" lon="4.57566">
        <ele>765.83</ele>
        <time>2018-01-11T09:35:52Z</time>
      </trkpt>
      <trkpt lat="45.63094" lon="4.57556">
        <ele>762.94</ele>
        <time>2018-01-11T09:36:02Z</time>
      </trkpt>
      <trkpt lat="45.62918" lon="4.57782">
        <ele>762.46</ele>
        <time>2018-01-11T09:37:05Z</time>
      </trkpt>
      <trkpt lat="45.62895" lon="4.57988">
        <ele>753.81</ele>
        <time>2018-01-11T09:37:33Z</time>
      </trkpt>
      <trkpt lat="45.62914" lon="4.58203">
        <ele>749</ele>
        <time>2018-01-11T09:38:01Z</time>
      </trkpt>
      <trkpt lat="45.62894" lon="4.58273">
        <ele>747.56</ele>
        <time>2018-01-11T09:38:16Z</time>
      </trkpt>
      <trkpt lat="45.6289" lon="4.58281">
        <ele>745.64</ele>
        <time>2018-01-11T09:39:04Z</time>
      </trkpt>
      <trkpt lat="45.62755" lon="4.58253">
        <ele>754.77</ele>
        <time>2018-01-11T09:42:32Z</time>
      </trkpt>
      <trkpt lat="45.62694" lon="4.58023">
        <ele>750.93</ele>
        <time>2018-01-11T09:46:06Z</time>
      </trkpt>
      <trkpt lat="45.62549" lon="4.57681">
        <ele>754.29</ele>
        <time>2018-01-11T09:48:11Z</time>
      </trkpt>
      <trkpt lat="45.62574" lon="4.57576">
        <ele>760.54</ele>
        <time>2018-01-11T09:48:56Z</time>
      </trkpt>
      <trkpt lat="45.62435" lon="4.57608">
        <ele>772.56</ele>
        <time>2018-01-11T09:56:26Z</time>
      </trkpt>
      <trkpt lat="45.62124" lon="4.57878">
        <ele>837.45</ele>
        <time>2018-01-11T10:03:37Z</time>
      </trkpt>
      <trkpt lat="45.62087" lon="4.57862">
        <ele>839.85</ele>
        <time>2018-01-11T10:04:02Z</time>
      </trkpt>
      <trkpt lat="45.62048" lon="4.57918">
        <ele>847.06</ele>
        <time>2018-01-11T10:04:51Z</time>
      </trkpt>
      <trkpt lat="45.61988" lon="4.57988">
        <ele>851.38</ele>
        <time>2018-01-11T10:10:55Z</time>
      </trkpt>
      <trkpt lat="45.61936" lon="4.58024">
        <ele>847.06</ele>
        <time>2018-01-11T10:11:16Z</time>
      </trkpt>
      <trkpt lat="45.6189" lon="4.58094">
        <ele>839.37</ele>
        <time>2018-01-11T10:11:30Z</time>
      </trkpt>
      <trkpt lat="45.61797" lon="4.58029">
        <ele>829.76</ele>
        <time>2018-01-11T10:13:31Z</time>
      </trkpt>
      <trkpt lat="45.61692" lon="4.57867">
        <ele>812.93</ele>
        <time>2018-01-11T10:14:01Z</time>
      </trkpt>
      <trkpt lat="45.61538" lon="4.57803">
        <ele>794.67</ele>
        <time>2018-01-11T10:17:29Z</time>
      </trkpt>
      <trkpt lat="45.61385" lon="4.57409">
        <ele>776.88</ele>
        <time>2018-01-11T10:21:23Z</time>
      </trkpt>
      <trkpt lat="45.61257" lon="4.57441">
        <ele>759.1</ele>
        <time>2018-01-11T10:24:45Z</time>
      </trkpt>
      <trkpt lat="45.61052" lon="4.57601">
        <ele>756.21</ele>
        <time>2018-01-11T10:32:28Z</time>
      </trkpt>
      <trkpt lat="45.60809" lon="4.57623">
        <ele>801.4</ele>
        <time>2018-01-11T10:37:28Z</time>
      </trkpt>
      <trkpt lat="45.60755" lon="4.5769">
        <ele>814.85</ele>
        <time>2018-01-11T10:38:47Z</time>
      </trkpt>
      <trkpt lat="45.60714" lon="4.57793">
        <ele>824.95</ele>
        <time>2018-01-11T10:40:12Z</time>
      </trkpt>
      <trkpt lat="45.60608" lon="4.58007">
        <ele>808.13</ele>
        <time>2018-01-11T10:43:42Z</time>
      </trkpt>
      <trkpt lat="45.6035" lon="4.58475">
        <ele>757.18</ele>
        <time>2018-01-11T10:47:09Z</time>
      </trkpt>
      <trkpt lat="45.60297" lon="4.5871">
        <ele>740.35</ele>
        <time>2018-01-11T10:47:34Z</time>
      </trkpt>
      <trkpt lat="45.60269" lon="4.58833">
        <ele>726.89</ele>
        <time>2018-01-11T10:47:46Z</time>
      </trkpt>
      <trkpt lat="45.60214" lon="4.5891">
        <ele>718.72</ele>
        <time>2018-01-11T10:50:18Z</time>
      </trkpt>
      <trkpt lat="45.60002" lon="4.58888">
        <ele>720.16</ele>
        <time>2018-01-11T10:52:00Z</time>
      </trkpt>
      <trkpt lat="45.59998" lon="4.5891">
        <ele>719.2</ele>
        <time>2018-01-11T10:52:16Z</time>
      </trkpt>
      <trkpt lat="45.60015" lon="4.58909">
        <ele>717.76</ele>
        <time>2018-01-11T10:53:27Z</time>
      </trkpt>
      <trkpt lat="45.59965" lon="4.58917">
        <ele>724.49</ele>
        <time>2018-01-11T10:55:41Z</time>
      </trkpt>
      <trkpt lat="45.59903" lon="4.58952">
        <ele>722.57</ele>
        <time>2018-01-11T10:58:05Z</time>
      </trkpt>
      <trkpt lat="45.598" lon="4.5882">
        <ele>722.09</ele>
        <time>2018-01-11T10:58:50Z</time>
      </trkpt>
      <trkpt lat="45.59809" lon="4.587">
        <ele>714.4</ele>
        <time>2018-01-11T11:01:55Z</time>
      </trkpt>
      <trkpt lat="45.59861" lon="4.58553">
        <ele>701.42</ele>
        <time>2018-01-11T11:02:22Z</time>
      </trkpt>
      <trkpt lat="45.59957" lon="4.586">
        <ele>683.15</ele>
        <time>2018-01-11T11:05:31Z</time>
      </trkpt>
      <trkpt lat="45.60032" lon="4.58582">
        <ele>662.97</ele>
        <time>2018-01-11T11:08:16Z</time>
      </trkpt>
      <trkpt lat="45.6003" lon="4.57924">
        <ele>679.79</ele>
        <time>2018-01-11T11:11:45Z</time>
      </trkpt>
      <trkpt lat="45.60086" lon="4.57811">
        <ele>684.6</ele>
        <time>2018-01-11T11:12:36Z</time>
      </trkpt>
      <trkpt lat="45.60102" lon="4.57789">
        <ele>683.63</ele>
        <time>2018-01-11T11:12:48Z</time>
      </trkpt>
      <trkpt lat="45.60003" lon="4.57431">
        <ele>692.29</ele>
        <time>2018-01-11T11:14:41Z</time>
      </trkpt>
      <trkpt lat="45.59953" lon="4.57148">
        <ele>693.25</ele>
        <time>2018-01-11T11:16:17Z</time>
      </trkpt>
      <trkpt lat="45.59935" lon="4.57104">
        <ele>696.61</ele>
        <time>2018-01-11T11:22:18Z</time>
      </trkpt>
      <trkpt lat="45.59883" lon="4.57082">
        <ele>699.98</ele>
        <time>2018-01-11T11:22:42Z</time>
      </trkpt>
      <trkpt lat="45.59946" lon="4.57019">
        <ele>705.26</ele>
        <time>2018-01-11T11:29:01Z</time>
      </trkpt>
      <trkpt lat="45.59949" lon="4.5701">
        <ele>705.26</ele>
        <time>2018-01-11T11:29:04Z</time>
      </trkpt>
      <trkpt lat="45.59934" lon="4.56819">
        <ele>689.88</ele>
        <time>2018-01-11T12:35:10Z</time>
      </trkpt>
      <trkpt lat="45.59876" lon="4.56679">
        <ele>684.12</ele>
        <time>2018-01-11T12:35:32Z</time>
      </trkpt>
      <trkpt lat="45.5987" lon="4.56298">
        <ele>718.72</ele>
        <time>2018-01-11T12:42:38Z</time>
      </trkpt>
      <trkpt lat="45.59776" lon="4.56101">
        <ele>721.61</ele>
        <time>2018-01-11T12:46:22Z</time>
      </trkpt>
      <trkpt lat="45.59656" lon="4.55991">
        <ele>736.99</ele>
        <time>2018-01-11T12:53:12Z</time>
      </trkpt>
      <trkpt lat="45.59539" lon="4.55626">
        <ele>784.09</ele>
        <time>2018-01-11T12:58:58Z</time>
      </trkpt>
      <trkpt lat="45.59537" lon="4.55522">
        <ele>791.3</ele>
        <time>2018-01-11T12:59:54Z</time>
      </trkpt>
      <trkpt lat="45.59497" lon="4.55453">
        <ele>800.92</ele>
        <time>2018-01-11T13:03:48Z</time>
      </trkpt>
      <trkpt lat="45.59461" lon="4.55204">
        <ele>810.53</ele>
        <time>2018-01-11T13:06:01Z</time>
      </trkpt>
      <trkpt lat="45.59419" lon="4.5536">
        <ele>819.18</ele>
        <time>2018-01-11T13:47:27Z</time>
      </trkpt>
      <trkpt lat="45.59358" lon="4.55381">
        <ele>829.76</ele>
        <time>2018-01-11T13:48:33Z</time>
      </trkpt>
      <trkpt lat="45.5926" lon="4.55493">
        <ele>853.31</ele>
        <time>2018-01-11T13:51:42Z</time>
      </trkpt>
      <trkpt lat="45.59234" lon="4.55461">
        <ele>861.48</ele>
        <time>2018-01-11T13:52:36Z</time>
      </trkpt>
      <trkpt lat="45.59198" lon="4.55457">
        <ele>867.25</ele>
        <time>2018-01-11T13:53:29Z</time>
      </trkpt>
      <trkpt lat="45.59125" lon="4.55447">
        <ele>874.46</ele>
        <time>2018-01-11T13:54:31Z</time>
      </trkpt>
      <trkpt lat="45.58997" lon="4.55331">
        <ele>855.71</ele>
        <time>2018-01-11T13:55:38Z</time>
      </trkpt>
      <trkpt lat="45.58946" lon="4.5523">
        <ele>862.44</ele>
        <time>2018-01-11T14:00:10Z</time>
      </trkpt>
      <trkpt lat="45.58577" lon="4.55387">
        <ele>880.71</ele>
        <time>2018-01-11T14:07:44Z</time>
      </trkpt>
      <trkpt lat="45.58571" lon="4.55396">
        <ele>880.71</ele>
        <time>2018-01-11T14:08:04Z</time>
      </trkpt>
      <trkpt lat="45.58444" lon="4.55442">
        <ele>855.71</ele>
        <time>2018-01-11T14:09:54Z</time>
      </trkpt>
      <trkpt lat="45.58424" lon="4.55389">
        <ele>851.38</ele>
        <time>2018-01-11T14:12:29Z</time>
      </trkpt>
      <trkpt lat="45.58356" lon="4.5537">
        <ele>836.48</ele>
        <time>2018-01-11T14:15:08Z</time>
      </trkpt>
      <trkpt lat="45.58309" lon="4.55329">
        <ele>830.24</ele>
        <time>2018-01-11T14:17:32Z</time>
      </trkpt>
      <trkpt lat="45.58279" lon="4.55386">
        <ele>824.47</ele>
        <time>2018-01-11T14:17:53Z</time>
      </trkpt>
      <trkpt lat="45.5822" lon="4.55465">
        <ele>815.82</ele>
        <time>2018-01-11T14:18:15Z</time>
      </trkpt>
      <trkpt lat="45.58046" lon="4.55597">
        <ele>806.2</ele>
        <time>2018-01-11T14:20:14Z</time>
      </trkpt>
      <trkpt lat="45.57979" lon="4.5578">
        <ele>815.82</ele>
        <time>2018-01-11T14:26:58Z</time>
      </trkpt>
      <trkpt lat="45.58017" lon="4.55976">
        <ele>828.31</ele>
        <time>2018-01-11T14:28:22Z</time>
      </trkpt>
      <trkpt lat="45.58076" lon="4.56261">
        <ele>832.16</ele>
        <time>2018-01-11T14:31:53Z</time>
      </trkpt>
      <trkpt lat="45.58116" lon="4.5636">
        <ele>833.12</ele>
        <time>2018-01-11T14:32:21Z</time>
      </trkpt>
      <trkpt lat="45.5817" lon="4.56415">
        <ele>829.76</ele>
        <time>2018-01-11T14:32:38Z</time>
      </trkpt>
      <trkpt lat="45.58358" lon="4.5673">
        <ele>805.24</ele>
        <time>2018-01-11T14:33:40Z</time>
      </trkpt>
      <trkpt lat="45.58363" lon="4.5682">
        <ele>803.8</ele>
        <time>2018-01-11T14:33:58Z</time>
      </trkpt>
      <trkpt lat="45.58264" lon="4.56767">
        <ele>784.09</ele>
        <time>2018-01-11T14:36:34Z</time>
      </trkpt>
      <trkpt lat="45.58141" lon="4.5667">
        <ele>761.98</ele>
        <time>2018-01-11T14:37:02Z</time>
      </trkpt>
      <trkpt lat="45.58111" lon="4.56658">
        <ele>755.25</ele>
        <time>2018-01-11T14:37:10Z</time>
      </trkpt>
      <trkpt lat="45.57973" lon="4.56689">
        <ele>729.78</ele>
        <time>2018-01-11T14:38:09Z</time>
      </trkpt>
      <trkpt lat="45.58093" lon="4.56797">
        <ele>713.44</ele>
        <time>2018-01-11T14:41:28Z</time>
      </trkpt>
      <trkpt lat="45.58223" lon="4.57004">
        <ele>719.68</ele>
        <time>2018-01-11T14:43:04Z</time>
      </trkpt>
      <trkpt lat="45.58321" lon="4.57116">
        <ele>707.67</ele>
        <time>2018-01-11T14:43:38Z</time>
      </trkpt>
      <trkpt lat="45.58415" lon="4.57433">
        <ele>674.98</ele>
        <time>2018-01-11T14:44:58Z</time>
      </trkpt>
      <trkpt lat="45.58286" lon="4.57711">
        <ele>673.06</ele>
        <time>2018-01-11T14:46:11Z</time>
      </trkpt>
      <trkpt lat="45.58235" lon="4.58075">
        <ele>644.22</ele>
        <time>2018-01-11T14:49:36Z</time>
      </trkpt>
      <trkpt lat="45.58207" lon="4.58245">
        <ele>625.96</ele>
        <time>2018-01-11T14:50:02Z</time>
      </trkpt>
      <trkpt lat="45.58171" lon="4.58257">
        <ele>618.75</ele>
        <time>2018-01-11T14:50:14Z</time>
      </trkpt>
      <trkpt lat="45.58176" lon="4.58302">
        <ele>615.38</ele>
        <time>2018-01-11T14:50:33Z</time>
      </trkpt>
      <trkpt lat="45.58076" lon="4.58458">
        <ele>614.42</ele>
        <time>2018-01-11T14:54:50Z</time>
      </trkpt>
      <trkpt lat="45.58086" lon="4.58404">
        <ele>611.54</ele>
        <time>2018-01-11T14:58:04Z</time>
      </trkpt>
      <trkpt lat="45.58096" lon="4.58976">
        <ele>585.1</ele>
        <time>2018-01-11T15:00:29Z</time>
      </trkpt>
      <trkpt lat="45.58063" lon="4.59069">
        <ele>589.43</ele>
        <time>2018-01-11T15:03:55Z</time>
      </trkpt>
      <trkpt lat="45.58013" lon="4.59203">
        <ele>577.89</ele>
        <time>2018-01-11T15:04:27Z</time>
      </trkpt>
      <trkpt lat="45.57983" lon="4.59311">
        <ele>563.95</ele>
        <time>2018-01-11T15:04:41Z</time>
      </trkpt>
      <trkpt lat="45.57954" lon="4.59317">
        <ele>559.14</ele>
        <time>2018-01-11T15:11:03Z</time>
      </trkpt>
      <trkpt lat="45.58018" lon="4.59446">
        <ele>552.9</ele>
        <time>2018-01-11T15:12:21Z</time>
      </trkpt>
      <trkpt lat="45.5808" lon="4.59494">
        <ele>548.57</ele>
        <time>2018-01-11T15:12:35Z</time>
      </trkpt>
      <trkpt lat="45.58189" lon="4.59493">
        <ele>541.36</ele>
        <time>2018-01-11T15:12:56Z</time>
      </trkpt>
      <trkpt lat="45.58439" lon="4.5922">
        <ele>506.27</ele>
        <time>2018-01-11T15:16:04Z</time>
      </trkpt>
      <trkpt lat="45.58407" lon="4.58957">
        <ele>487.05</ele>
        <time>2018-01-11T15:16:49Z</time>
      </trkpt>
      <trkpt lat="45.58634" lon="4.59097">
        <ele>515.4</ele>
        <time>2018-01-11T15:21:00Z</time>
      </trkpt>
      <trkpt lat="45.5867" lon="4.59089">
        <ele>513.96</ele>
        <time>2018-01-11T15:21:14Z</time>
      </trkpt>
      <trkpt lat="45.58833" lon="4.58982">
        <ele>503.39</ele>
        <time>2018-01-11T15:21:47Z</time>
      </trkpt>
      <trkpt lat="45.58919" lon="4.58869">
        <ele>496.18</ele>
        <time>2018-01-11T15:22:04Z</time>
      </trkpt>
      <trkpt lat="45.58995" lon="4.58797">
        <ele>490.41</ele>
        <time>2018-01-11T15:22:17Z</time>
      </trkpt>
      <trkpt lat="45.59049" lon="4.58737">
        <ele>485.12</ele>
        <time>2018-01-11T15:22:26Z</time>
      </trkpt>
      <trkpt lat="45.59063" lon="4.58753">
        <ele>484.16</ele>
        <time>2018-01-11T15:22:30Z</time>
      </trkpt>
      <trkpt lat="45.58993" lon="4.58996">
        <ele>490.41</ele>
        <time>2018-01-11T15:24:57Z</time>
      </trkpt>
      <trkpt lat="45.59014" lon="4.59097">
        <ele>493.77</ele>
        <time>2018-01-11T15:26:30Z</time>
      </trkpt>
      <trkpt lat="45.58966" lon="4.59079">
        <ele>485.6</ele>
        <time>2018-01-11T15:30:49Z</time>
      </trkpt>
      <trkpt lat="45.58905" lon="4.59108">
        <ele>475.99</ele>
        <time>2018-01-11T15:31:04Z</time>
      </trkpt>
      <trkpt lat="45.58804" lon="4.59212">
        <ele>455.8</ele>
        <time>2018-01-11T15:31:42Z</time>
      </trkpt>
      <trkpt lat="45.58763" lon="4.59313">
        <ele>448.59</ele>
        <time>2018-01-11T15:31:56Z</time>
      </trkpt>
      <trkpt lat="45.58732" lon="4.59545">
        <ele>433.21</ele>
        <time>2018-01-11T15:32:34Z</time>
      </trkpt>
      <trkpt lat="45.58766" lon="4.59747">
        <ele>441.86</ele>
        <time>2018-01-11T15:35:32Z</time>
      </trkpt>
      <trkpt lat="45.58683" lon="4.59807">
        <ele>443.79</ele>
        <time>2018-01-18T09:33:01Z</time>
      </trkpt>
      <trkpt lat="45.58664" lon="4.59852">
        <ele>444.27</ele>
        <time>2018-01-18T09:33:20Z</time>
      </trkpt>
      <trkpt lat="45.58663" lon="4.60243">
        <ele>432.73</ele>
        <time>2018-01-18T09:37:37Z</time>
      </trkpt>
      <trkpt lat="45.58641" lon="4.60285">
        <ele>430.81</ele>
        <time>2018-01-18T09:37:47Z</time>
      </trkpt>
      <trkpt lat="45.58556" lon="4.6051">
        <ele>422.64</ele>
        <time>2018-01-18T09:38:22Z</time>
      </trkpt>
      <trkpt lat="45.58284" lon="4.60596">
        <ele>410.62</ele>
        <time>2018-01-18T09:39:19Z</time>
      </trkpt>
      <trkpt lat="45.58163" lon="4.60555">
        <ele>406.29</ele>
        <time>2018-01-18T09:42:07Z</time>
      </trkpt>
      <trkpt lat="45.58117" lon="4.60567">
        <ele>403.41</ele>
        <time>2018-01-18T09:43:06Z</time>
      </trkpt>
      <trkpt lat="45.58015" lon="4.60687">
        <ele>399.08</ele>
        <time>2018-01-18T09:43:36Z</time>
      </trkpt>
      <trkpt lat="45.57896" lon="4.60728">
        <ele>393.8</ele>
        <time>2018-01-18T09:43:58Z</time>
      </trkpt>
      <trkpt lat="45.57835" lon="4.6086">
        <ele>390.43</ele>
        <time>2018-01-18T09:44:20Z</time>
      </trkpt>
      <trkpt lat="45.57641" lon="4.61046">
        <ele>385.63</ele>
        <time>2018-01-18T09:45:24Z</time>
      </trkpt>
      <trkpt lat="45.57555" lon="4.61088">
        <ele>387.07</ele>
        <time>2018-01-18T09:46:02Z</time>
      </trkpt>
      <trkpt lat="45.57554" lon="4.61278">
        <ele>373.13</ele>
        <time>2018-01-18T09:48:25Z</time>
      </trkpt>
      <trkpt lat="45.57578" lon="4.61318">
        <ele>366.88</ele>
        <time>2018-01-18T09:48:53Z</time>
      </trkpt>
      <trkpt lat="45.57488" lon="4.61316">
        <ele>352.94</ele>
        <time>2018-01-18T09:49:23Z</time>
      </trkpt>
      <trkpt lat="45.57559" lon="4.61393">
        <ele>344.77</ele>
        <time>2018-01-18T09:52:11Z</time>
      </trkpt>
      <trkpt lat="45.57523" lon="4.61425">
        <ele>342.37</ele>
        <time>2018-01-18T09:54:03Z</time>
      </trkpt>
      <trkpt lat="45.57516" lon="4.61481">
        <ele>337.56</ele>
        <time>2018-01-18T09:54:27Z</time>
      </trkpt>
      <trkpt lat="45.5749" lon="4.61489">
        <ele>338.04</ele>
        <time>2018-01-18T09:57:20Z</time>
      </trkpt>
      <trkpt lat="45.57675" lon="4.61558">
        <ele>363.52</ele>
        <time>2018-01-18T10:10:45Z</time>
      </trkpt>
      <trkpt lat="45.57575" lon="4.61607">
        <ele>380.82</ele>
        <time>2018-01-18T10:12:29Z</time>
      </trkpt>
      <trkpt lat="45.57536" lon="4.61685">
        <ele>386.59</ele>
        <time>2018-01-18T10:13:27Z</time>
      </trkpt>
      <trkpt lat="45.57594" lon="4.61756">
        <ele>393.8</ele>
        <time>2018-01-18T10:14:49Z</time>
      </trkpt>
      <trkpt lat="45.5755" lon="4.61848">
        <ele>398.6</ele>
        <time>2018-01-18T10:18:04Z</time>
      </trkpt>
      <trkpt lat="45.57585" lon="4.6205">
        <ele>422.16</ele>
        <time>2018-01-18T10:20:16Z</time>
      </trkpt>
      <trkpt lat="45.57605" lon="4.62086">
        <ele>425.52</ele>
        <time>2018-01-18T10:20:43Z</time>
      </trkpt>
      <trkpt lat="45.57593" lon="4.622">
        <ele>429.85</ele>
        <time>2018-01-18T10:21:34Z</time>
      </trkpt>
      <trkpt lat="45.57545" lon="4.62376">
        <ele>432.25</ele>
        <time>2018-01-18T10:25:34Z</time>
      </trkpt>
      <trkpt lat="45.57571" lon="4.62578">
        <ele>431.29</ele>
        <time>2018-01-18T10:26:22Z</time>
      </trkpt>
      <trkpt lat="45.57432" lon="4.62785">
        <ele>414.47</ele>
        <time>2018-01-18T10:33:21Z</time>
      </trkpt>
      <trkpt lat="45.57417" lon="4.62898">
        <ele>410.14</ele>
        <time>2018-01-18T10:33:33Z</time>
      </trkpt>
      <trkpt lat="45.57304" lon="4.63022">
        <ele>407.26</ele>
        <time>2018-01-18T10:34:08Z</time>
      </trkpt>
      <trkpt lat="45.57237" lon="4.63134">
        <ele>406.29</ele>
        <time>2018-01-18T10:35:27Z</time>
      </trkpt>
      <trkpt lat="45.57236" lon="4.63131">
        <ele>406.29</ele>
        <time>2018-01-18T10:36:12Z</time>
      </trkpt>
      <trkpt lat="45.57257" lon="4.63194">
        <ele>408.7</ele>
        <time>2018-01-18T10:42:13Z</time>
      </trkpt>
      <trkpt lat="45.57253" lon="4.63363">
        <ele>408.7</ele>
        <time>2018-01-18T10:42:56Z</time>
      </trkpt>
      <trkpt lat="45.574" lon="4.6351">
        <ele>415.43</ele>
        <time>2018-01-18T10:46:38Z</time>
      </trkpt>
      <trkpt lat="45.57425" lon="4.63701">
        <ele>410.62</ele>
        <time>2018-01-18T10:47:16Z</time>
      </trkpt>
      <trkpt lat="45.5752" lon="4.6372">
        <ele>413.98</ele>
        <time>2018-01-18T10:48:36Z</time>
      </trkpt>
      <trkpt lat="45.57618" lon="4.63921">
        <ele>416.87</ele>
        <time>2018-01-18T10:50:42Z</time>
      </trkpt>
      <trkpt lat="45.57627" lon="4.63931">
        <ele>416.87</ele>
        <time>2018-01-18T10:50:46Z</time>
      </trkpt>
      <trkpt lat="45.57549" lon="4.64053">
        <ele>411.58</ele>
        <time>2018-01-18T10:51:22Z</time>
      </trkpt>
      <trkpt lat="45.57279" lon="4.64162">
        <ele>404.85</ele>
        <time>2018-01-18T10:55:11Z</time>
      </trkpt>
      <trkpt lat="45.57222" lon="4.64186">
        <ele>401.49</ele>
        <time>2018-01-18T10:55:26Z</time>
      </trkpt>
      <trkpt lat="45.56984" lon="4.64467">
        <ele>385.15</ele>
        <time>2018-01-18T10:57:37Z</time>
      </trkpt>
      <trkpt lat="45.5685" lon="4.64584">
        <ele>375.53</ele>
        <time>2018-01-18T11:07:12Z</time>
      </trkpt>
      <trkpt lat="45.56752" lon="4.64938">
        <ele>369.76</ele>
        <time>2018-01-18T11:08:14Z</time>
      </trkpt>
      <trkpt lat="45.56701" lon="4.65127">
        <ele>360.63</ele>
        <time>2018-01-18T11:08:41Z</time>
      </trkpt>
      <trkpt lat="45.56889" lon="4.65182">
        <ele>362.07</ele>
        <time>2018-01-18T11:09:25Z</time>
      </trkpt>
      <trkpt lat="45.56963" lon="4.65205">
        <ele>359.19</ele>
        <time>2018-01-18T11:09:36Z</time>
      </trkpt>
      <trkpt lat="45.57052" lon="4.65283">
        <ele>364.48</ele>
        <time>2018-01-18T11:11:57Z</time>
      </trkpt>
      <trkpt lat="45.57118" lon="4.65707">
        <ele>354.86</ele>
        <time>2018-01-18T11:16:26Z</time>
      </trkpt>
      <trkpt lat="45.57112" lon="4.65986">
        <ele>347.65</ele>
        <time>2018-01-18T11:17:07Z</time>
      </trkpt>
      <trkpt lat="45.57138" lon="4.66058">
        <ele>345.25</ele>
        <time>2018-01-18T11:17:18Z</time>
      </trkpt>
      <trkpt lat="45.57008" lon="4.66235">
        <ele>341.41</ele>
        <time>2018-01-18T11:29:46Z</time>
      </trkpt>
      <trkpt lat="45.57076" lon="4.66413">
        <ele>334.68</ele>
        <time>2018-01-18T11:30:16Z</time>
      </trkpt>
      <trkpt lat="45.56948" lon="4.66536">
        <ele>334.68</ele>
        <time>2018-01-18T11:33:10Z</time>
      </trkpt>
      <trkpt lat="45.56862" lon="4.66714">
        <ele>329.87</ele>
        <time>2018-01-18T11:37:06Z</time>
      </trkpt>
      <trkpt lat="45.56974" lon="4.66915">
        <ele>316.89</ele>
        <time>2018-01-18T11:37:52Z</time>
      </trkpt>
      <trkpt lat="45.57051" lon="4.66929">
        <ele>305.84</ele>
        <time>2018-01-18T11:38:48Z</time>
      </trkpt>
      <trkpt lat="45.5702" lon="4.67052">
        <ele>320.26</ele>
        <time>2018-01-18T11:42:39Z</time>
      </trkpt>
      <trkpt lat="45.57041" lon="4.67102">
        <ele>328.91</ele>
        <time>2018-01-18T11:43:41Z</time>
      </trkpt>
      <trkpt lat="45.57118" lon="4.67067">
        <ele>333.23</ele>
        <time>2018-01-18T11:44:21Z</time>
      </trkpt>
      <trkpt lat="45.57214" lon="4.66958">
        <ele>336.12</ele>
        <time>2018-01-18T11:45:02Z</time>
      </trkpt>
      <trkpt lat="45.57243" lon="4.66996">
        <ele>336.12</ele>
        <time>2018-01-18T11:45:14Z</time>
      </trkpt>
      <trkpt lat="45.57286" lon="4.67087">
        <ele>350.06</ele>
        <time>2018-01-18T13:05:34Z</time>
      </trkpt>
      <trkpt lat="45.573" lon="4.67185">
        <ele>349.1</ele>
        <time>2018-01-18T13:05:50Z</time>
      </trkpt>
      <trkpt lat="45.57378" lon="4.67177">
        <ele>346.69</ele>
        <time>2018-01-18T13:10:02Z</time>
      </trkpt>
      <trkpt lat="45.57527" lon="4.67258">
        <ele>344.29</ele>
        <time>2018-01-18T13:10:34Z</time>
      </trkpt>
      <trkpt lat="45.57895" lon="4.67551">
        <ele>292.38</ele>
        <time>2018-01-18T13:19:05Z</time>
      </trkpt>
      <trkpt lat="45.57913" lon="4.67616">
        <ele>297.18</ele>
        <time>2018-01-18T13:20:56Z</time>
      </trkpt>
      <trkpt lat="45.57883" lon="4.67675">
        <ele>304.39</ele>
        <time>2018-01-18T13:21:53Z</time>
      </trkpt>
      <trkpt lat="45.57868" lon="4.67866">
        <ele>326.02</ele>
        <time>2018-01-18T13:26:51Z</time>
      </trkpt>
      <trkpt lat="45.57969" lon="4.68004">
        <ele>328.91</ele>
        <time>2018-01-18T13:27:51Z</time>
      </trkpt>
      <trkpt lat="45.58132" lon="4.68196">
        <ele>322.66</ele>
        <time>2018-01-18T13:28:40Z</time>
      </trkpt>
      <trkpt lat="45.58177" lon="4.68271">
        <ele>312.09</ele>
        <time>2018-01-18T13:28:59Z</time>
      </trkpt>
      <trkpt lat="45.58268" lon="4.68335">
        <ele>319.3</ele>
        <time>2018-01-18T13:29:41Z</time>
      </trkpt>
      <trkpt lat="45.58245" lon="4.68348">
        <ele>321.22</ele>
        <time>2018-01-18T13:30:31Z</time>
      </trkpt>
      <trkpt lat="45.5825" lon="4.68434">
        <ele>331.79</ele>
        <time>2018-01-18T13:34:51Z</time>
      </trkpt>
      <trkpt lat="45.58295" lon="4.68611">
        <ele>339.48</ele>
        <time>2018-01-18T13:36:00Z</time>
      </trkpt>
      <trkpt lat="45.5852" lon="4.68908">
        <ele>335.64</ele>
        <time>2018-01-18T13:42:44Z</time>
      </trkpt>
      <trkpt lat="45.58638" lon="4.69131">
        <ele>338.52</ele>
        <time>2018-01-18T13:47:02Z</time>
      </trkpt>
      <trkpt lat="45.58825" lon="4.69043">
        <ele>346.21</ele>
        <time>2018-01-18T13:48:24Z</time>
      </trkpt>
      <trkpt lat="45.58987" lon="4.68804">
        <ele>354.38</ele>
        <time>2018-01-18T13:51:43Z</time>
      </trkpt>
      <trkpt lat="45.59019" lon="4.68557">
        <ele>350.54</ele>
        <time>2018-01-18T13:54:47Z</time>
      </trkpt>
      <trkpt lat="45.59062" lon="4.68329">
        <ele>348.13</ele>
        <time>2018-01-18T13:55:15Z</time>
      </trkpt>
      <trkpt lat="45.59043" lon="4.67704">
        <ele>361.59</ele>
        <time>2018-01-18T13:57:11Z</time>
      </trkpt>
      <trkpt lat="45.59023" lon="4.67383">
        <ele>363.04</ele>
        <time>2018-01-18T14:02:37Z</time>
      </trkpt>
      <trkpt lat="45.59243" lon="4.67937">
        <ele>357.27</ele>
        <time>2018-01-18T14:04:12Z</time>
      </trkpt>
      <trkpt lat="45.59564" lon="4.68401">
        <ele>353.42</ele>
        <time>2018-01-18T14:05:43Z</time>
      </trkpt>
      <trkpt lat="45.59694" lon="4.68632">
        <ele>347.17</ele>
        <time>2018-01-18T14:11:01Z</time>
      </trkpt>
      <trkpt lat="45.59773" lon="4.68673">
        <ele>339.96</ele>
        <time>2018-01-18T14:11:27Z</time>
      </trkpt>
      <trkpt lat="45.59899" lon="4.68486">
        <ele>334.2</ele>
        <time>2018-01-18T14:13:21Z</time>
      </trkpt>
      <trkpt lat="45.59977" lon="4.68259">
        <ele>331.31</ele>
        <time>2018-01-18T14:15:55Z</time>
      </trkpt>
      <trkpt lat="45.60274" lon="4.68">
        <ele>317.85</ele>
        <time>2018-01-18T14:21:12Z</time>
      </trkpt>
      <trkpt lat="45.60319" lon="4.67888">
        <ele>329.87</ele>
        <time>2018-01-18T14:25:43Z</time>
      </trkpt>
      <trkpt lat="45.60336" lon="4.67745">
        <ele>342.37</ele>
        <time>2018-01-18T14:27:35Z</time>
      </trkpt>
      <trkpt lat="45.60583" lon="4.67773">
        <ele>351.98</ele>
        <time>2018-01-18T14:38:27Z</time>
      </trkpt>
      <trkpt lat="45.60633" lon="4.67637">
        <ele>359.19</ele>
        <time>2018-01-18T14:39:17Z</time>
      </trkpt>
      <trkpt lat="45.60735" lon="4.67577">
        <ele>361.59</ele>
        <time>2018-01-18T14:40:26Z</time>
      </trkpt>
      <trkpt lat="45.60819" lon="4.67489">
        <ele>359.19</ele>
        <time>2018-01-18T14:43:07Z</time>
      </trkpt>
      <trkpt lat="45.60897" lon="4.67505">
        <ele>353.9</ele>
        <time>2018-01-18T14:46:08Z</time>
      </trkpt>
      <trkpt lat="45.60997" lon="4.67463">
        <ele>354.38</ele>
        <time>2018-01-18T14:47:25Z</time>
      </trkpt>
      <trkpt lat="45.6124" lon="4.67368">
        <ele>330.35</ele>
        <time>2018-01-18T14:48:09Z</time>
      </trkpt>
      <trkpt lat="45.61257" lon="4.674">
        <ele>331.31</ele>
        <time>2018-01-18T14:49:51Z</time>
      </trkpt>
      <trkpt lat="45.61434" lon="4.6725">
        <ele>337.56</ele>
        <time>2018-01-18T14:53:08Z</time>
      </trkpt>
      <trkpt lat="45.61425" lon="4.67165">
        <ele>335.64</ele>
        <time>2018-01-18T14:56:03Z</time>
      </trkpt>
      <trkpt lat="45.61447" lon="4.67108">
        <ele>335.64</ele>
        <time>2018-01-18T14:56:18Z</time>
      </trkpt>
      <trkpt lat="45.61505" lon="4.67053">
        <ele>339.48</ele>
        <time>2018-01-18T14:56:47Z</time>
      </trkpt>
      <trkpt lat="45.61683" lon="4.67112">
        <ele>350.06</ele>
        <time>2018-01-18T15:13:46Z</time>
      </trkpt>
      <trkpt lat="45.61811" lon="4.67108">
        <ele>365.92</ele>
        <time>2018-01-18T15:22:43Z</time>
      </trkpt>
      <trkpt lat="45.6186" lon="4.6711">
        <ele>375.53</ele>
        <time>2018-01-18T15:41:31Z</time>
      </trkpt>
      <trkpt lat="45.61912" lon="4.6711">
        <ele>378.9</ele>
        <time>2018-01-18T15:42:50Z</time>
      </trkpt>
      <trkpt lat="45.62028" lon="4.67288">
        <ele>384.66</ele>
        <time>2018-01-18T16:03:03Z</time>
      </trkpt>
      <trkpt lat="45.62059" lon="4.67314">
        <ele>382.74</ele>
        <time>2018-01-18T16:15:20Z</time>
      </trkpt>
      <trkpt lat="45.62071" lon="4.67338">
        <ele>383.7</ele>
        <time>2018-01-18T16:26:13Z</time>
      </trkpt>
    </trkseg>
  </trk>
</gpx>